createdAt,value
2022-11-03T00:03:45.113Z,11.84
2022-11-03T00:09:11.628Z,11.66
2022-11-03T00:14:34.673Z,11.64
2022-11-03T00:19:57.773Z,11.66
2022-11-03T00:25:22.230Z,11.81
2022-11-03T00:30:45.353Z,11.66
2022-11-03T00:36:09.463Z,11.66
2022-11-03T00:41:34.085Z,11.82
2022-11-03T00:46:57.623Z,11.89
2022-11-03T00:52:20.734Z,11.75
2022-11-03T00:57:45.233Z,11.72
2022-11-03T01:03:08.476Z,11.83
2022-11-03T01:08:33.754Z,11.81
2022-11-03T01:13:58.425Z,11.81
2022-11-03T01:19:21.780Z,11.75
2022-11-03T01:24:45.490Z,11.81
2022-11-03T01:30:11.029Z,11.79
2022-11-03T01:35:34.133Z,11.73
2022-11-03T01:40:57.206Z,11.76
2022-11-03T01:46:24.736Z,11.88
2022-11-03T01:51:50.062Z,11.58
2022-11-03T01:57:16.703Z,11.59
2022-11-03T02:02:41.562Z,11.55
2022-11-03T02:13:35.678Z,11.58
2022-11-03T02:19:01.515Z,11.55
2022-11-03T02:24:29.007Z,11.64
2022-11-03T02:29:53.431Z,11.75
2022-11-03T02:35:22.115Z,11.64
2022-11-03T02:40:49.434Z,11.51
2022-11-03T02:46:16.161Z,11.50
2022-11-03T02:51:39.193Z,11.61
2022-11-03T02:57:06.004Z,11.54
2022-11-03T03:02:34.370Z,11.68
2022-11-03T03:08:02.074Z,11.55
2022-11-03T03:13:25.380Z,11.73
2022-11-03T03:18:52.342Z,11.85
2022-11-03T03:24:16.942Z,11.93
2022-11-03T03:29:42.888Z,11.97
2022-11-03T03:35:11.007Z,11.95
2022-11-03T03:40:37.670Z,11.79
2022-11-03T03:46:05.492Z,11.65
2022-11-03T03:51:31.052Z,11.63
2022-11-03T03:56:57.724Z,11.64
2022-11-03T04:02:20.888Z,11.64
2022-11-03T04:07:47.965Z,11.63
2022-11-03T04:13:28.459Z,11.79
2022-11-03T04:19:09.179Z,11.80
2022-11-03T04:24:33.635Z,11.90
2022-11-03T04:29:59.260Z,11.80
2022-11-03T04:35:25.527Z,11.72
2022-11-03T04:40:53.803Z,11.84
2022-11-03T04:46:19.263Z,11.85
2022-11-03T04:51:42.440Z,11.80
2022-11-03T04:57:10.352Z,11.86
2022-11-03T05:02:33.455Z,11.84
2022-11-03T05:07:58.295Z,11.98
2022-11-03T05:13:25.345Z,11.97
2022-11-03T05:18:50.646Z,11.88
2022-11-03T05:29:44.513Z,11.85
2022-11-03T05:35:22.380Z,11.90
2022-11-03T05:40:45.427Z,11.88
2022-11-03T05:46:12.348Z,11.90
2022-11-03T05:51:36.283Z,12.00
2022-11-03T05:56:59.615Z,11.97
2022-11-03T06:02:34.053Z,12.04
2022-11-03T06:07:59.059Z,12.07
2022-11-03T06:13:24.810Z,12.11
2022-11-03T06:18:49.245Z,12.10
2022-11-03T06:24:14.999Z,12.01
2022-11-03T06:29:40.048Z,12.16
2022-11-03T06:35:07.127Z,12.13
2022-11-03T06:40:37.359Z,12.22
2022-11-03T06:46:02.508Z,12.34
2022-11-03T06:51:28.747Z,12.27
2022-11-03T06:56:53.457Z,12.22
2022-11-03T07:02:36.256Z,12.23
2022-11-03T07:08:04.664Z,12.28
2022-11-03T07:13:28.761Z,12.29
2022-11-03T07:18:51.961Z,12.36
2022-11-03T07:24:19.118Z,12.36
2022-11-03T07:29:45.320Z,12.47
2022-11-03T07:35:25.700Z,12.53
2022-11-03T07:40:50.534Z,12.59
2022-11-03T07:46:15.412Z,12.63
2022-11-03T07:51:42.414Z,12.62
2022-11-03T07:57:08.944Z,12.72
2022-11-03T08:02:33.598Z,12.69
2022-11-03T08:07:56.980Z,12.87
2022-11-03T08:13:21.499Z,12.83
2022-11-03T08:18:44.807Z,12.89
2022-11-03T08:24:08.366Z,13.01
2022-11-03T08:29:32.897Z,12.90
2022-11-03T08:34:56.007Z,13.02
2022-11-03T08:40:41.589Z,13.08
2022-11-03T08:46:15.854Z,13.28
2022-11-03T08:51:44.451Z,13.39
2022-11-03T08:57:07.988Z,13.53
2022-11-03T09:02:40.726Z,13.63
2022-11-03T09:13:46.858Z,13.69
2022-11-03T09:19:11.309Z,13.70
2022-11-03T09:24:34.541Z,13.82
2022-11-03T09:30:12.295Z,13.95
2022-11-03T09:35:37.532Z,13.84
2022-11-03T09:41:00.935Z,13.93
2022-11-03T09:46:24.206Z,14.09
2022-11-03T09:51:48.727Z,14.11
2022-11-03T09:57:13.939Z,14.38
2022-11-03T10:02:38.806Z,14.63
2022-11-03T10:08:04.787Z,14.84
2022-11-03T10:13:30.731Z,14.75
2022-11-03T10:18:53.926Z,14.77
2022-11-03T10:24:18.747Z,14.91
2022-11-03T10:29:43.699Z,14.95
2022-11-03T10:35:35.362Z,15.06
2022-11-03T10:41:12.783Z,14.89
2022-11-03T10:46:50.166Z,15.01
2022-11-03T10:52:19.709Z,14.95
2022-11-03T10:57:45.493Z,15.06
2022-11-03T11:03:10.034Z,15.04
2022-11-03T11:08:34.961Z,15.17
2022-11-03T11:14:24.476Z,15.07
2022-11-03T11:20:22.289Z,15.09
2022-11-03T11:26:06.552Z,15.36
2022-11-03T11:31:32.225Z,15.34
2022-11-03T11:37:28.442Z,15.69
2022-11-03T11:43:28.084Z,15.73
2022-11-03T11:49:03.903Z,16.22
2022-11-03T11:54:27.092Z,16.37
2022-11-03T11:59:53.254Z,16.64
2022-11-03T12:05:22.810Z,16.62
2022-11-03T12:10:53.456Z,16.23
2022-11-03T12:16:39.860Z,15.96
2022-11-03T12:22:08.326Z,15.65
2022-11-03T12:27:47.134Z,15.75
2022-11-03T12:33:10.956Z,15.73
2022-11-03T12:38:35.741Z,15.65
2022-11-03T12:43:58.867Z,15.78
2022-11-03T12:49:22.099Z,15.72
2022-11-03T12:54:47.862Z,15.44
2022-11-03T13:00:12.561Z,15.25
2022-11-03T13:05:35.724Z,15.07
2022-11-03T13:11:00.518Z,15.14
2022-11-03T13:16:23.817Z,15.13
2022-11-03T13:21:46.902Z,15.05
2022-11-03T13:27:11.397Z,15.09
2022-11-03T13:32:34.690Z,15.05
2022-11-03T13:37:59.455Z,15.21
2022-11-03T13:43:28.452Z,15.65
2022-11-03T14:00:22.495Z,15.70
2022-11-03T14:05:45.611Z,15.55
2022-11-03T14:11:22.786Z,15.53
2022-11-03T14:16:47.393Z,15.66
2022-11-03T14:22:10.616Z,15.60
2022-11-03T14:27:33.799Z,15.53
2022-11-03T14:32:59.761Z,15.48
2022-11-03T14:38:23.105Z,15.53
2022-11-03T14:43:46.696Z,15.47
2022-11-03T14:49:11.273Z,15.37
2022-11-03T14:54:34.472Z,15.24
2022-11-03T14:59:57.550Z,15.49
2022-11-03T15:05:42.394Z,15.36
2022-11-03T15:11:07.830Z,15.20
2022-11-03T15:16:32.613Z,14.98
2022-11-03T15:21:57.099Z,15.06
2022-11-03T15:27:20.262Z,15.18
2022-11-03T15:32:43.389Z,14.99
2022-11-03T15:38:08.371Z,15.08
2022-11-03T15:43:31.759Z,14.96
2022-11-03T15:48:57.602Z,14.77
2022-11-03T15:54:22.447Z,14.99
2022-11-03T15:59:45.527Z,14.90
2022-11-03T16:05:09.734Z,14.97
2022-11-03T16:10:34.209Z,14.80
2022-11-03T16:15:57.388Z,14.71
2022-11-03T16:21:20.543Z,14.47
2022-11-03T16:26:45.175Z,14.49
2022-11-03T16:32:08.305Z,14.35
2022-11-03T16:37:31.417Z,14.14
2022-11-03T16:42:55.911Z,14.05
2022-11-03T16:48:19.027Z,14.09
2022-11-03T16:53:42.319Z,13.92
2022-11-03T16:59:06.904Z,13.98
2022-11-03T17:10:16.606Z,13.75
2022-11-03T17:15:41.034Z,13.49
2022-11-03T17:21:04.154Z,13.21
2022-11-03T17:26:31.157Z,12.93
2022-11-03T17:31:55.704Z,12.80
2022-11-03T17:37:18.842Z,12.86
2022-11-03T17:42:42.048Z,12.82
2022-11-03T17:48:06.996Z,12.77
2022-11-03T17:53:32.279Z,12.79
2022-11-03T17:58:55.742Z,12.68
2022-11-03T18:04:20.253Z,12.75
2022-11-03T18:09:45.335Z,12.65
2022-11-03T18:15:12.125Z,12.54
2022-11-03T18:20:36.740Z,12.55
2022-11-03T18:26:00.273Z,12.63
2022-11-03T18:31:25.252Z,12.59
2022-11-03T18:36:49.757Z,12.48
2022-11-03T18:42:14.147Z,12.33
2022-11-03T18:47:37.208Z,12.38
2022-11-03T18:53:01.689Z,12.47
2022-11-03T18:58:25.993Z,12.33
2022-11-03T19:03:49.264Z,12.18
2022-11-03T19:09:16.170Z,12.26
2022-11-03T19:14:41.124Z,12.26
2022-11-03T19:20:12.383Z,12.22
2022-11-03T19:25:38.163Z,12.24
2022-11-03T19:31:02.051Z,12.40
2022-11-03T19:36:25.285Z,12.32
2022-11-03T19:42:07.279Z,12.35
2022-11-03T19:47:34.631Z,12.53
2022-11-03T19:53:02.521Z,12.53
2022-11-03T19:58:29.147Z,12.52
2022-11-03T20:03:52.262Z,12.49
2022-11-03T20:09:18.410Z,12.55
2022-11-03T20:14:42.945Z,12.45
2022-11-03T20:20:06.833Z,12.61
2022-11-03T20:25:34.984Z,12.63
2022-11-03T20:31:00.936Z,12.57
2022-11-03T20:36:24.099Z,12.46
2022-11-03T20:41:48.845Z,12.38
2022-11-03T20:47:14.447Z,12.41
2022-11-03T20:52:37.956Z,12.12
2022-11-03T20:58:01.134Z,11.96
2022-11-03T21:09:12.542Z,11.96
2022-11-03T21:14:35.613Z,11.87
2022-11-03T21:20:02.180Z,11.76
2022-11-03T21:25:25.458Z,11.62
2022-11-03T21:30:50.043Z,11.48
2022-11-03T21:36:14.419Z,11.50
2022-11-03T21:41:55.038Z,11.45
2022-11-03T21:47:21.153Z,11.54
2022-11-03T21:52:45.589Z,11.45
2022-11-03T21:58:08.916Z,11.51
2022-11-03T22:03:31.951Z,11.46
2022-11-03T22:08:56.365Z,11.38
2022-11-03T22:14:21.730Z,11.31
2022-11-03T22:20:02.580Z,11.29
2022-11-03T22:25:44.849Z,11.44
2022-11-03T22:31:25.629Z,11.61
2022-11-03T22:36:48.727Z,11.68
2022-11-03T22:42:31.291Z,11.78
2022-11-03T22:47:57.132Z,11.89
2022-11-03T22:53:38.097Z,11.87
2022-11-03T22:59:02.621Z,11.86
2022-11-03T23:04:28.574Z,11.85
2022-11-03T23:09:51.678Z,11.59
2022-11-03T23:15:34.160Z,11.73
2022-11-03T23:21:09.654Z,11.95
2022-11-03T23:26:32.695Z,12.16
2022-11-03T23:31:57.379Z,11.98
2022-11-03T23:37:21.505Z,12.10
2022-11-03T23:42:44.548Z,12.28
2022-11-03T23:48:26.571Z,12.30
2022-11-03T23:53:50.379Z,12.43
2022-11-03T23:59:14.533Z,12.44
